Time;durP1;ratioP1;P1;durP2;ratioP2;P2;SDS_P1;SDS_P2;PMS_P1;PMS_P2;Temp;Humidity;BMP_temperature;BMP_pressure;BME280_temperature;BME280_humidity;BME280_pressure;Samples;Min_cycle;Max_cycle;Signal;HPM_P1;HPM_P2
2022/10/23 00:01:31;;;;;;;2.78;2.33;;;;;;;11.60;100.00;98569.03;4121572;28;20209;-48
2022/10/23 00:03:33;;;;;;;1.95;1.80;;;;;;;11.62;100.00;98572.31;4118433;28;20194;-49
2022/10/23 00:05:39;;;;;;;2.47;2.33;;;;;;;11.61;100.00;98554.22;4108891;28;20224;-50
2022/10/23 00:07:40;;;;;;;4.47;4.03;;;;;;;11.54;100.00;98564.53;4109315;28;20202;-48
2022/10/23 00:09:42;;;;;;;5.47;4.95;;;;;;;11.38;100.00;98551.69;4117285;28;20644;-51
2022/10/23 00:11:46;;;;;;;13.25;4.55;;;;;;;11.37;100.00;98552.78;4118192;28;20310;-51
2022/10/23 00:13:48;;;;;;;4.80;4.30;;;;;;;11.46;100.00;98550.44;4112123;28;20258;-50
2022/10/23 00:15:50;;;;;;;5.18;4.13;;;;;;;11.47;100.00;98547.44;4123663;28;20222;-50
2022/10/23 00:17:53;;;;;;;5.57;4.32;;;;;;;11.49;100.00;98549.91;4120254;28;20387;-51
2022/10/23 00:19:55;;;;;;;3.65;2.97;;;;;;;11.47;100.00;98552.94;4114305;28;20222;-52
2022/10/23 00:21:57;;;;;;;4.93;3.60;;;;;;;11.52;100.00;98550.22;4135957;28;20209;-51
2022/10/23 00:23:59;;;;;;;4.82;3.72;;;;;;;11.59;100.00;98553.66;4130517;28;20682;-50
2022/10/23 00:26:02;;;;;;;5.30;4.45;;;;;;;11.60;100.00;98546.25;4119585;28;20900;-51
2022/10/23 00:28:03;;;;;;;5.43;4.93;;;;;;;11.64;100.00;98542.75;4115708;28;20234;-51
2022/10/23 00:30:06;;;;;;;6.28;5.63;;;;;;;11.67;100.00;98547.72;4118889;28;20253;-50
2022/10/23 00:32:07;;;;;;;7.68;4.47;;;;;;;11.69;100.00;98550.19;4135626;28;20209;-50
2022/10/23 00:34:09;;;;;;;5.45;4.80;;;;;;;11.63;100.00;98557.53;4097495;28;20601;-50
2022/10/23 00:36:13;;;;;;;4.03;3.40;;;;;;;11.68;100.00;98549.38;4118420;28;20221;-50
2022/10/23 00:38:14;;;;;;;3.92;3.47;;;;;;;11.66;100.00;98535.09;4116171;28;20290;-52
2022/10/23 00:40:16;;;;;;;3.30;3.00;;;;;;;11.60;100.00;98541.63;4136602;28;20245;-50
2022/10/23 00:42:19;;;;;;;3.40;3.00;;;;;;;11.56;100.00;98534.13;4119812;28;20237;-52
2022/10/23 00:44:21;;;;;;;3.45;2.50;;;;;;;11.58;100.00;98530.06;4133839;28;20293;-50
2022/10/23 00:46:23;;;;;;;3.13;2.70;;;;;;;11.68;100.00;98541.16;4135393;28;20225;-51
2022/10/23 00:48:26;;;;;;;2.78;2.58;;;;;;;11.68;100.00;98535.66;4107970;28;20748;-51
2022/10/23 00:50:30;;;;;;;2.55;2.28;;;;;;;11.58;100.00;98530.06;4118516;28;20893;-50
2022/10/23 00:52:34;;;;;;;3.85;2.70;;;;;;;11.56;100.00;98529.47;4118413;28;20232;-51
2022/10/23 00:54:37;;;;;;;3.67;2.38;;;;;;;11.54;100.00;98531.63;4122168;28;20218;-50
2022/10/23 00:56:41;;;;;;;1.92;1.70;;;;;;;11.52;100.00;98533.78;4106119;28;20657;-51
2022/10/23 00:58:43;;;;;;;1.95;1.83;;;;;;;11.54;100.00;98515.19;4116501;28;20210;-51
2022/10/23 01:00:53;;;;;;;2.63;1.98;;;;;;;11.60;100.00;98525.16;4118281;28;20198;-51
2022/10/23 01:02:55;;;;;;;3.45;2.53;;;;;;;11.55;100.00;98521.50;4116229;28;20212;-50
2022/10/23 01:04:57;;;;;;;3.85;2.67;;;;;;;11.59;100.00;98529.00;4116465;28;20218;-50
2022/10/23 01:07:08;;;;;;;2.92;2.72;;;;;;;11.58;100.00;98527.31;4137253;28;20255;-51
2022/10/23 01:09:30;;;;;;;3.33;3.03;;;;;;;11.55;100.00;98524.22;4121792;28;20293;-50
2022/10/23 01:11:42;;;;;;;2.35;1.70;;;;;;;11.52;100.00;98522.81;4106839;28;20582;-51
2022/10/23 01:14:01;;;;;;;2.40;1.85;;;;;;;11.58;100.00;98519.09;4119179;28;20232;-50
2022/10/23 01:16:13;;;;;;;1.90;1.63;;;;;;;11.56;100.00;98523.97;4124511;28;20597;-51
2022/10/23 01:18:14;;;;;;;1.75;1.50;;;;;;;11.47;100.00;98516.47;4123409;28;20208;-51
2022/10/23 01:20:28;;;;;;;3.78;1.83;;;;;;;11.45;100.00;98516.72;4139226;28;20210;-50
2022/10/23 01:23:13;;;;;;;1.85;1.75;;;;;;;11.39;100.00;98517.75;4124201;28;20248;-50
2022/10/23 01:28:46;;;;;;;2.88;2.40;;;;;;;11.43;100.00;98510.66;4133184;28;20724;-50
2022/10/23 01:30:48;;;;;;;2.10;1.92;;;;;;;11.39;100.00;98516.91;4124082;28;20514;-51
2022/10/23 01:32:54;;;;;;;2.30;1.90;;;;;;;11.43;100.00;98521.63;4118713;28;20218;-50
2022/10/23 01:35:01;;;;;;;2.65;2.45;;;;;;;11.42;100.00;98516.41;4103831;28;20290;-51
2022/10/23 01:37:04;;;;;;;1.75;1.65;;;;;;;11.44;100.00;98498.63;4122415;28;20610;-52
2022/10/23 01:39:08;;;;;;;2.20;2.08;;;;;;;11.38;100.00;98499.63;4125799;28;20265;-52
2022/10/23 01:41:13;;;;;;;1.60;1.50;;;;;;;11.38;100.00;98504.31;4123842;28;20236;-50
2022/10/23 01:43:26;;;;;;;2.50;2.30;;;;;;;11.34;100.00;98495.78;4139287;28;20931;-50
2022/10/23 01:45:38;;;;;;;1.85;1.70;;;;;;;11.31;100.00;98501.75;4137396;28;20744;-50
2022/10/23 01:47:41;;;;;;;2.47;2.28;;;;;;;11.31;100.00;98499.00;4125749;28;20686;-50
2022/10/23 01:49:43;;;;;;;2.00;1.80;;;;;;;11.34;100.00;98504.00;4118378;28;20249;-52
2022/10/23 01:51:49;;;;;;;2.25;2.05;;;;;;;11.33;100.00;98505.09;4126714;28;20213;-51
2022/10/23 01:53:55;;;;;;;2.30;1.88;;;;;;;11.32;100.00;98506.13;4119579;28;20328;-52
2022/10/23 01:55:58;;;;;;;3.38;3.00;;;;;;;11.33;100.00;98507.81;4122603;28;20222;-50
2022/10/23 01:58:01;;;;;;;1.45;1.35;;;;;;;11.35;100.00;98500.16;4127208;28;20305;-51
2022/10/23 02:00:13;;;;;;;1.58;1.48;;;;;;;11.30;100.00;98496.53;4106185;28;20222;-52
2022/10/23 02:02:19;;;;;;;1.48;1.38;;;;;;;11.25;100.00;98489.06;4120676;28;20766;-51
2022/10/23 02:04:26;;;;;;;2.17;2.08;;;;;;;11.26;100.00;98488.00;4126907;28;20754;-52
2022/10/23 02:06:28;;;;;;;1.55;1.45;;;;;;;11.18;100.00;98484.88;4137405;28;20218;-51
2022/10/23 02:08:30;;;;;;;1.50;1.40;;;;;;;11.19;100.00;98492.84;4117193;28;20257;-50
2022/10/23 02:10:47;;;;;;;1.65;1.55;;;;;;;11.18;100.00;98488.44;4123482;28;20206;-51
2022/10/23 02:12:58;;;;;;;2.15;1.88;;;;;;;11.18;100.00;98491.16;4119935;28;20231;-51
2022/10/23 02:15:11;;;;;;;2.10;2.00;;;;;;;11.16;100.00;98485.13;4111222;28;20244;-50
2022/10/23 02:17:20;;;;;;;3.42;1.65;;;;;;;11.17;100.00;98470.34;4125933;28;20586;-50
2022/10/23 02:19:28;;;;;;;1.63;1.52;;;;;;;11.20;100.00;98480.81;4123828;28;20201;-51
2022/10/23 02:21:40;;;;;;;1.45;1.33;;;;;;;11.14;100.00;98476.34;4125635;28;20206;-52
2022/10/23 02:23:44;;;;;;;4.88;1.83;;;;;;;11.16;100.00;98468.69;4109936;28;20723;-51
2022/10/23 02:26:29;;;;;;;1.98;1.77;;;;;;;11.10;100.00;98464.22;4125556;28;20221;-50
2022/10/23 02:28:39;;;;;;;1.95;1.58;;;;;;;11.13;100.00;98463.75;4061136;29;20221;-51
2022/10/23 02:30:43;;;;;;;1.55;1.45;;;;;;;11.12;100.00;98462.06;4101724;28;20210;-52
2022/10/23 02:32:48;;;;;;;1.73;1.63;;;;;;;11.10;100.00;98461.50;4135442;28;20210;-50
2022/10/23 02:34:49;;;;;;;2.40;2.20;;;;;;;11.17;100.00;98461.31;4122749;28;20293;-50
2022/10/23 02:36:51;;;;;;;2.15;2.05;;;;;;;11.13;100.00;98465.63;4133798;28;20202;-50
2022/10/23 02:38:53;;;;;;;2.20;2.00;;;;;;;11.12;100.00;98453.84;4111799;28;20207;-51
2022/10/23 02:41:16;;;;;;;1.60;1.50;;;;;;;11.14;100.00;98459.06;4126321;28;20213;-50
2022/10/23 02:43:33;;;;;;;1.92;1.83;;;;;;;11.06;100.00;98446.69;4115697;28;22274;-51
2022/10/23 02:45:43;;;;;;;2.35;2.00;;;;;;;11.04;100.00;98442.53;4123389;28;20304;-50
2022/10/23 02:48:00;;;;;;;2.00;1.83;;;;;;;11.02;100.00;98442.78;4106299;28;20202;-51
2022/10/23 02:50:11;;;;;;;1.60;1.50;;;;;;;11.03;100.00;98449.09;4110007;28;20219;-51
2022/10/23 02:52:41;;;;;;;2.35;1.95;;;;;;;11.05;100.00;98449.66;4120376;28;20703;-51
2022/10/23 02:55:23;;;;;;;9.07;1.80;;;;;;;10.99;100.00;98436.97;4126190;28;20198;-51
2022/10/23 02:57:33;;;;;;;1.58;1.45;;;;;;;11.03;100.00;98441.69;4077287;28;20204;-50
2022/10/23 02:59:41;;;;;;;1.95;1.40;;;;;;;11.13;100.00;98436.34;4121222;28;20202;-51
2022/10/23 03:01:55;;;;;;;1.50;1.40;;;;;;;10.99;100.00;98434.25;4125059;28;20213;-50
2022/10/23 03:03:58;;;;;;;8.38;2.60;;;;;;;10.97;100.00;98434.50;4121454;28;20206;-50
2022/10/23 03:06:00;;;;;;;16.85;2.13;;;;;;;10.97;100.00;98431.75;4119841;28;20303;-51
2022/10/23 03:08:12;;;;;;;1.27;1.23;;;;;;;10.96;100.00;98430.09;4118929;28;20212;-51
2022/10/23 03:10:14;;;;;;;1.42;1.33;;;;;;;11.03;100.00;98432.66;4116299;28;20297;-50
2022/10/23 03:12:15;;;;;;;1.35;1.25;;;;;;;10.98;100.00;98422.44;4120718;28;20222;-50
2022/10/23 03:14:18;;;;;;;1.42;1.33;;;;;;;10.95;100.00;98422.13;4122176;28;20365;-50
2022/10/23 03:16:20;;;;;;;4.47;1.70;;;;;;;10.97;100.00;98425.47;4120203;28;20225;-51
2022/10/23 03:18:21;;;;;;;1.83;1.67;;;;;;;10.88;100.00;98416.88;4117459;28;20211;-50
2022/10/23 03:20:26;;;;;;;1.05;1.00;;;;;;;10.85;100.00;98428.31;4124422;28;20220;-50
2022/10/23 03:22:27;;;;;;;1.38;1.27;;;;;;;10.83;100.00;98418.72;4136503;28;20198;-50
2022/10/23 03:24:29;;;;;;;1.58;1.48;;;;;;;10.85;100.00;98419.28;4117296;28;20207;-50
2022/10/23 03:26:30;;;;;;;1.42;1.33;;;;;;;10.82;100.00;98427.19;4121818;28;20699;-51
2022/10/23 03:28:34;;;;;;;1.52;1.42;;;;;;;10.80;100.00;98438.38;4106572;28;20218;-50
2022/10/23 03:30:35;;;;;;;0.95;0.95;;;;;;;10.82;100.00;98437.03;4106585;28;20217;-50
2022/10/23 03:32:37;;;;;;;1.30;1.20;;;;;;;10.79;100.00;98440.25;4137419;28;20194;-50
2022/10/23 03:34:39;;;;;;;2.20;1.58;;;;;;;10.83;100.00;98435.94;4121999;28;20580;-51
2022/10/23 03:36:40;;;;;;;1.48;1.38;;;;;;;10.79;100.00;98434.78;4122671;28;20302;-51
2022/10/23 03:38:42;;;;;;;1.42;1.33;;;;;;;10.79;100.00;98439.47;4124054;28;20213;-50
2022/10/23 03:40:44;;;;;;;1.13;1.13;;;;;;;10.80;100.00;98438.38;4124922;28;20289;-51
2022/10/23 03:42:45;;;;;;;1.13;1.05;;;;;;;10.75;100.00;98438.28;4120565;28;20730;-52
2022/10/23 03:44:48;;;;;;;1.35;1.25;;;;;;;10.82;100.00;98438.13;4125471;28;20583;-52
2022/10/23 03:46:49;;;;;;;1.55;1.45;;;;;;;10.74;100.00;98433.09;4120180;28;20206;-52
2022/10/23 03:48:51;;;;;;;2.17;1.70;;;;;;;10.73;100.00;98428.69;4118885;28;20214;-51
2022/10/23 03:50:53;;;;;;;1.88;1.77;;;;;;;10.71;100.00;98426.22;4120943;28;20210;-50
2022/10/23 03:52:54;;;;;;;4.18;1.90;;;;;;;10.80;100.00;98432.91;4120561;28;20207;-51
2022/10/23 03:54:56;;;;;;;1.25;1.15;;;;;;;10.78;100.00;98427.66;4126134;28;20209;-50
2022/10/23 03:56:58;;;;;;;1.88;1.65;;;;;;;10.72;100.00;98427.03;4119657;28;20224;-50
2022/10/23 03:59:00;;;;;;;1.40;1.35;;;;;;;10.64;100.00;98424.72;4137176;28;20588;-52
2022/10/23 04:01:01;;;;;;;1.60;1.27;;;;;;;10.65;100.00;98415.44;4120425;28;20256;-51
2022/10/23 04:03:03;;;;;;;1.63;1.52;;;;;;;10.64;100.00;98408.31;4116233;28;20202;-50
2022/10/23 04:05:05;;;;;;;8.15;1.30;;;;;;;10.61;100.00;98415.13;4104985;28;20659;-50
2022/10/23 04:07:07;;;;;;;2.33;2.15;;;;;;;10.60;100.00;98413.47;4120268;28;20294;-50
2022/10/23 04:09:09;;;;;;;1.52;1.42;;;;;;;10.59;100.00;98408.22;4123255;28;20221;-50
2022/10/23 04:11:10;;;;;;;1.50;1.40;;;;;;;10.55;100.00;98404.38;4120994;28;20617;-50
2022/10/23 04:13:12;;;;;;;1.25;1.05;;;;;;;10.55;100.00;98405.19;4120559;28;20261;-50
2022/10/23 04:15:13;;;;;;;1.40;1.33;;;;;;;10.55;100.00;98409.84;4116428;28;20237;-50
2022/10/23 04:17:15;;;;;;;1.85;1.75;;;;;;;10.48;100.00;98414.66;4126343;28;20210;-52
2022/10/23 04:19:17;;;;;;;1.23;1.10;;;;;;;10.44;100.00;98414.34;4102361;28;20211;-50
2022/10/23 04:21:19;;;;;;;1.60;1.50;;;;;;;10.43;100.00;98412.69;4134694;28;20209;-52
2022/10/23 04:23:20;;;;;;;2.70;1.50;;;;;;;10.41;100.00;98419.50;4110432;28;20221;-52
2022/10/23 04:25:22;;;;;;;1.10;1.00;;;;;;;10.40;100.00;98434.22;4121041;28;20226;-50
2022/10/23 04:27:24;;;;;;;1.63;1.52;;;;;;;10.41;100.00;98424.97;4125692;28;20296;-50
2022/10/23 04:29:25;;;;;;;1.48;1.38;;;;;;;10.45;100.00;98415.16;4124474;28;20213;-50
2022/10/23 04:31:27;;;;;;;1.60;1.50;;;;;;;10.44;100.00;98425.28;4122499;28;20684;-50
2022/10/23 04:33:29;;;;;;;2.25;1.55;;;;;;;10.44;100.00;98418.97;4118869;28;20222;-50
2022/10/23 04:35:30;;;;;;;1.48;1.33;;;;;;;10.44;100.00;98417.06;4125613;28;20240;-50
2022/10/23 04:37:32;;;;;;;6.40;1.35;;;;;;;10.45;100.00;98428.81;4114173;28;20210;-51
2022/10/23 04:39:34;;;;;;;5.53;1.80;;;;;;;10.46;100.00;98447.72;4138273;28;20205;-52
2022/10/23 04:41:37;;;;;;;5.40;1.85;;;;;;;10.50;100.00;98439.84;4119877;28;20382;-51
2022/10/23 04:43:39;;;;;;;2.55;1.40;;;;;;;10.53;100.00;98433.88;4118374;28;20678;-52
2022/10/23 04:45:41;;;;;;;1.55;1.45;;;;;;;10.57;100.00;98435.03;4117653;28;20238;-50
2022/10/23 04:47:42;;;;;;;1.90;1.65;;;;;;;10.63;100.00;98428.56;4120717;28;20213;-51
2022/10/23 04:49:44;;;;;;;1.58;1.48;;;;;;;10.65;100.00;98429.13;4124298;28;20249;-51
2022/10/23 04:51:46;;;;;;;1.58;1.55;;;;;;;10.66;100.00;98428.03;4125475;28;20249;-50
2022/10/23 04:53:47;;;;;;;1.20;1.10;;;;;;;10.63;100.00;98423.91;4089528;28;20220;-52
2022/10/23 04:55:51;;;;;;;1.45;1.35;;;;;;;10.61;100.00;98411.56;4121610;28;21059;-49
2022/10/23 04:57:52;;;;;;;1.40;1.25;;;;;;;10.74;100.00;98405.72;4118878;28;20214;-50
2022/10/23 04:59:54;;;;;;;2.22;1.52;;;;;;;10.57;100.00;98407.66;4123904;28;20202;-51
2022/10/23 05:01:55;;;;;;;2.45;2.25;;;;;;;10.55;100.00;98402.44;4124149;28;20305;-52
2022/10/23 05:03:57;;;;;;;1.13;1.02;;;;;;;10.53;100.00;98395.56;4121783;28;20209;-50
2022/10/23 05:05:59;;;;;;;1.45;1.35;;;;;;;10.56;100.00;98395.88;4120593;28;20234;-51
2022/10/23 05:08:00;;;;;;;1.25;1.15;;;;;;;10.59;100.00;98391.81;4112712;28;20215;-51
2022/10/23 05:10:03;;;;;;;1.25;1.15;;;;;;;10.48;100.00;98387.31;4127380;28;20591;-50
2022/10/23 05:12:05;;;;;;;2.33;1.48;;;;;;;10.47;100.00;98388.38;4127279;28;20198;-50
2022/10/23 05:14:06;;;;;;;1.58;1.48;;;;;;;10.53;100.00;98384.63;4123335;28;20226;-50
2022/10/23 05:16:08;;;;;;;1.30;1.20;;;;;;;10.50;100.00;98379.66;4125878;28;20230;-50
2022/10/23 05:18:14;;;;;;;1.58;1.30;;;;;;;10.45;100.00;98376.84;4110029;28;20203;-50
2022/10/23 05:20:20;;;;;;;1.55;1.40;;;;;;;10.47;100.00;98380.19;4120923;28;20206;-50
2022/10/23 05:22:26;;;;;;;1.70;1.60;;;;;;;10.60;100.00;98369.69;4127545;28;20202;-50
2022/10/23 05:24:28;;;;;;;1.42;1.33;;;;;;;10.53;100.00;98373.66;4126078;28;20204;-50
2022/10/23 05:26:30;;;;;;;1.33;1.23;;;;;;;10.47;100.00;98363.78;4122232;28;20326;-50
2022/10/23 05:28:32;;;;;;;1.42;1.33;;;;;;;10.41;100.00;98367.50;4138118;28;20208;-50
2022/10/23 05:30:34;;;;;;;2.17;1.98;;;;;;;10.37;100.00;98363.63;4137817;28;20202;-50
2022/10/23 05:32:35;;;;;;;1.35;1.25;;;;;;;10.35;100.00;98365.78;4115009;28;20690;-50
2022/10/23 05:34:37;;;;;;;1.73;1.63;;;;;;;10.40;100.00;98368.56;4119767;28;20218;-50
2022/10/23 05:36:39;;;;;;;1.25;1.20;;;;;;;10.41;100.00;98364.78;4108197;28;20241;-51
2022/10/23 05:38:41;;;;;;;1.00;1.00;;;;;;;10.42;100.00;98366.44;4139398;28;20236;-50
2022/10/23 05:40:43;;;;;;;1.63;1.52;;;;;;;10.45;100.00;98365.91;4138483;28;20236;-50
2022/10/23 05:42:44;;;;;;;1.08;1.08;;;;;;;10.39;100.00;98366.91;4125566;28;20206;-50
2022/10/23 05:44:49;;;;;;;19.42;1.85;;;;;;;10.40;100.00;98363.09;4115883;28;20303;-51
2022/10/23 05:46:51;;;;;;;1.58;1.10;;;;;;;10.28;100.00;98365.94;4141223;28;20296;-50
2022/10/23 05:48:53;;;;;;;1.92;1.13;;;;;;;10.28;100.00;98356.94;4119033;28;20220;-50
2022/10/23 05:50:55;;;;;;;1.30;1.20;;;;;;;10.21;100.00;98356.28;4121630;28;20215;-50
2022/10/23 05:52:56;;;;;;;1.65;1.52;;;;;;;10.20;100.00;98351.88;4122956;28;20214;-50
2022/10/23 05:54:58;;;;;;;1.38;1.27;;;;;;;10.24;100.00;98347.56;4108320;28;21927;-50
2022/10/23 05:57:00;;;;;;;1.15;1.05;;;;;;;10.27;100.00;98341.63;4122852;28;20218;-50
2022/10/23 05:59:02;;;;;;;3.42;1.10;;;;;;;10.21;100.00;98342.63;4124091;28;20664;-50
2022/10/23 06:01:08;;;;;;;1.23;1.13;;;;;;;10.16;100.00;98340.63;4124420;28;20263;-50
2022/10/23 06:03:10;;;;;;;1.35;1.23;;;;;;;10.19;100.00;98339.28;4121530;28;21040;-51
2022/10/23 06:05:11;;;;;;;1.42;1.33;;;;;;;10.13;100.00;98340.28;4120939;28;20222;-52
2022/10/23 06:07:13;;;;;;;2.13;1.23;;;;;;;10.14;100.00;98331.03;4126627;28;20216;-50
2022/10/23 06:09:15;;;;;;;1.52;1.30;;;;;;;10.18;100.00;98329.44;4137442;28;20232;-50
2022/10/23 06:11:17;;;;;;;1.40;1.33;;;;;;;10.14;100.00;98325.56;4138366;28;20280;-50
2022/10/23 06:13:18;;;;;;;3.25;1.13;;;;;;;10.08;100.00;98332.84;4125091;28;20260;-50
2022/10/23 06:15:20;;;;;;;1.13;1.02;;;;;;;10.09;100.00;98329.03;4117362;28;20320;-50
2022/10/23 06:17:22;;;;;;;1.42;1.00;;;;;;;10.08;100.00;98326.56;4126379;28;20285;-50
2022/10/23 06:19:24;;;;;;;3.05;1.50;;;;;;;10.12;100.00;98330.44;4136762;28;20232;-51
2022/10/23 06:21:25;;;;;;;1.48;1.38;;;;;;;10.09;100.00;98329.03;4120713;28;20202;-51
2022/10/23 06:23:29;;;;;;;1.45;1.35;;;;;;;10.10;100.00;98327.97;4120383;28;20211;-52
2022/10/23 06:25:31;;;;;;;1.55;1.45;;;;;;;10.11;100.00;98337.00;4139769;28;20231;-51
2022/10/23 06:27:33;;;;;;;1.50;1.40;;;;;;;10.20;100.00;98340.94;4123440;28;20206;-50
2022/10/23 06:29:34;;;;;;;6.35;2.85;;;;;;;10.15;100.00;98341.69;4136653;28;20255;-50
2022/10/23 06:31:36;;;;;;;1.85;1.75;;;;;;;10.14;100.00;98341.97;4121258;28;20214;-50
2022/10/23 06:33:38;;;;;;;1.88;1.58;;;;;;;10.15;100.00;98338.16;4121081;28;20992;-51
2022/10/23 06:35:40;;;;;;;3.53;1.70;;;;;;;10.19;100.00;98340.13;4122126;28;20735;-51
2022/10/23 06:37:42;;;;;;;3.28;1.63;;;;;;;10.22;100.00;98330.59;4110937;28;20211;-50
2022/10/23 06:39:43;;;;;;;3.83;2.95;;;;;;;10.16;100.00;98323.41;4126121;28;20304;-50
2022/10/23 06:41:45;;;;;;;5.50;2.08;;;;;;;10.22;100.00;98334.13;4124687;28;20209;-49
2022/10/23 06:43:48;;;;;;;1.60;1.50;;;;;;;10.23;100.00;98340.44;4117832;28;20202;-51
2022/10/23 06:45:50;;;;;;;4.75;1.88;;;;;;;10.47;100.00;98336.41;4120153;28;20237;-50
2022/10/23 06:47:52;;;;;;;1.30;1.20;;;;;;;10.30;100.00;98330.16;4119599;28;20217;-50
2022/10/23 06:49:54;;;;;;;1.60;1.50;;;;;;;10.28;100.00;98340.53;4112959;28;20223;-52
2022/10/23 06:51:55;;;;;;;1.10;1.10;;;;;;;10.48;100.00;98344.34;4120441;28;20206;-51
2022/10/23 06:53:57;;;;;;;1.52;1.42;;;;;;;10.45;100.00;98344.88;4113472;28;20707;-50
2022/10/23 06:55:59;;;;;;;1.10;1.10;;;;;;;10.48;100.00;98344.34;4121108;28;20249;-51
2022/10/23 06:58:01;;;;;;;1.60;1.50;;;;;;;10.44;100.00;98347.84;4115052;28;20297;-51
2022/10/23 07:00:04;;;;;;;13.77;1.45;;;;;;;10.48;100.00;98338.06;4122942;28;20686;-50
2022/10/23 07:02:05;;;;;;;1.40;1.30;;;;;;;10.34;100.00;98336.78;4108788;28;20213;-50
2022/10/23 07:04:07;;;;;;;1.38;1.27;;;;;;;10.44;100.00;98336.91;4121506;28;20354;-52
2022/10/23 07:06:10;;;;;;;2.42;1.35;;;;;;;10.46;100.00;98340.22;4104563;28;20233;-49
2022/10/23 07:08:12;;;;;;;1.33;1.23;;;;;;;10.49;100.00;98334.25;4120234;28;20250;-50
2022/10/23 07:10:14;;;;;;;1.20;1.20;;;;;;;10.55;100.00;98339.50;4120176;28;20313;-50
2022/10/23 07:12:16;;;;;;;1.50;1.40;;;;;;;10.58;100.00;98343.66;4118489;28;20217;-50
2022/10/23 07:14:17;;;;;;;1.30;1.20;;;;;;;10.61;100.00;98348.63;4119508;28;20825;-50
2022/10/23 07:16:21;;;;;;;1.40;1.30;;;;;;;10.81;100.00;98359.84;4126087;28;20230;-51
2022/10/23 07:18:22;;;;;;;2.63;1.67;;;;;;;10.77;100.00;98365.81;4120353;28;20671;-49
2022/10/23 07:20:24;;;;;;;1.30;1.20;;;;;;;10.84;100.00;98360.97;4125176;28;20225;-51
2022/10/23 07:22:26;;;;;;;1.67;1.58;;;;;;;10.82;100.00;98352.19;4118774;28;20673;-49
2022/10/23 07:24:27;;;;;;;1.77;1.67;;;;;;;10.77;100.00;98350.47;4119893;28;20206;-50
2022/10/23 07:26:29;;;;;;;1.58;1.42;;;;;;;10.86;100.00;98349.75;4121551;28;20238;-50
2022/10/23 07:28:31;;;;;;;1.38;1.17;;;;;;;10.99;100.00;98358.41;4121488;28;20213;-52
2022/10/23 07:30:32;;;;;;;1.05;1.05;;;;;;;10.93;100.00;98356.72;4121081;28;20213;-50
2022/10/23 07:32:34;;;;;;;1.42;1.33;;;;;;;11.04;100.00;98355.72;4116351;28;20202;-50
2022/10/23 07:34:36;;;;;;;1.13;1.13;;;;;;;11.00;100.00;98360.06;4134764;28;20233;-50
2022/10/23 07:36:37;;;;;;;0.73;0.73;;;;;;;11.00;100.00;98354.59;4135052;28;20244;-51
2022/10/23 07:38:39;;;;;;;1.45;1.35;;;;;;;11.06;100.00;98353.56;4126494;28;20308;-51
2022/10/23 07:40:41;;;;;;;1.15;1.15;;;;;;;11.18;100.00;98351.50;4111023;28;20319;-50
2022/10/23 07:42:42;;;;;;;1.42;1.33;;;;;;;11.19;100.00;98347.69;4115678;28;20207;-52
2022/10/23 07:44:44;;;;;;;1.00;1.00;;;;;;;11.17;100.00;98344.34;4122772;28;20210;-51
2022/10/23 07:46:45;;;;;;;1.15;1.10;;;;;;;11.20;100.00;98338.38;4119482;28;20564;-50
2022/10/23 07:48:47;;;;;;;1.52;1.10;;;;;;;11.15;100.00;98327.38;4117061;28;20226;-51
2022/10/23 07:50:49;;;;;;;1.17;1.17;;;;;;;11.33;100.00;98337.97;4119444;28;20645;-51
2022/10/23 07:52:51;;;;;;;5.88;2.25;;;;;;;11.31;100.00;98325.63;4118122;28;20210;-50
2022/10/23 07:54:53;;;;;;;1.23;1.17;;;;;;;11.34;100.00;98325.94;4116157;28;20226;-50
2022/10/23 07:56:54;;;;;;;1.67;1.35;;;;;;;11.60;100.00;98333.31;4117653;28;20202;-52
2022/10/23 07:58:56;;;;;;;3.38;1.42;;;;;;;11.99;100.00;98321.03;4098075;28;20647;-50
2022/10/23 08:01:02;;;;;;;1.10;1.10;;;;;;;12.49;100.00;98321.31;4115471;28;20201;-50
2022/10/23 08:03:03;;;;;;;1.05;1.02;;;;;;;13.17;100.00;98328.47;4119648;28;20570;-50
2022/10/23 08:05:06;;;;;;;1.65;1.55;;;;;;;13.38;100.00;98325.47;4118188;28;20221;-50
2022/10/23 08:07:07;;;;;;;3.40;1.17;;;;;;;14.10;100.00;98322.47;4101421;28;20218;-52
2022/10/23 08:09:09;;;;;;;1.52;1.17;;;;;;;14.54;100.00;98320.72;4112548;28;20215;-51
2022/10/23 08:11:17;;;;;;;1.35;1.20;;;;;;;14.59;100.00;98324.31;4116475;28;20213;-50
2022/10/23 08:13:19;;;;;;;2.05;1.10;;;;;;;14.56;100.00;98324.88;4120895;28;20201;-50
2022/10/23 08:15:21;;;;;;;1.30;1.20;;;;;;;14.65;100.00;98317.69;4115124;28;20333;-50
2022/10/23 08:17:22;;;;;;;1.20;1.10;;;;;;;14.77;100.00;98322.88;4094260;28;20215;-51
2022/10/23 08:19:28;;;;;;;1.30;1.20;;;;;;;15.61;100.00;98329.88;4134306;28;20989;-51
2022/10/23 08:21:30;;;;;;;1.15;1.00;;;;;;;15.23;100.00;98325.13;4115329;28;20205;-51
2022/10/23 08:23:35;;;;;;;0.73;0.73;;;;;;;15.58;100.00;98316.66;4118293;28;20684;-50
2022/10/23 08:25:37;;;;;;;1.02;0.88;;;;;;;15.62;99.80;98312.19;4118812;28;20222;-50
2022/10/23 08:27:39;;;;;;;1.15;1.10;;;;;;;15.88;100.00;98313.66;4124371;28;20790;-50
2022/10/23 08:29:41;;;;;;;0.85;0.85;;;;;;;15.77;100.00;98309.31;4126650;28;20217;-51
2022/10/23 08:31:42;;;;;;;1.02;0.95;;;;;;;15.65;98.54;98308.88;4123307;28;20210;-51
2022/10/23 08:33:44;;;;;;;0.95;0.82;;;;;;;15.46;100.00;98299.66;4126857;28;20300;-50
2022/10/23 08:35:46;;;;;;;0.75;0.70;;;;;;;15.53;100.00;98302.06;4140189;28;20287;-52
2022/10/23 08:37:48;;;;;;;1.10;1.00;;;;;;;15.34;100.00;98303.84;4115445;28;20210;-51
2022/10/23 08:39:49;;;;;;;1.88;1.23;;;;;;;15.29;100.00;98315.72;4124148;28;20210;-49
2022/10/23 08:41:53;;;;;;;0.90;0.90;;;;;;;15.22;100.00;98314.41;4123308;28;20264;-50
2022/10/23 08:44:13;;;;;;;1.25;1.08;;;;;;;15.11;100.00;98307.28;4119874;28;20206;-50
2022/10/23 08:46:16;;;;;;;0.90;0.80;;;;;;;14.88;100.00;98317.03;4103399;28;20234;-51
2022/10/23 08:48:18;;;;;;;0.80;0.80;;;;;;;14.83;100.00;98317.06;4123139;28;20590;-50
2022/10/23 08:50:31;;;;;;;2.42;1.45;;;;;;;14.75;100.00;98319.56;4127630;28;20236;-50
2022/10/23 08:52:46;;;;;;;0.90;0.80;;;;;;;14.68;100.00;98313.53;4120679;28;20194;-50
2022/10/23 08:55:16;;;;;;;0.80;0.80;;;;;;;14.50;100.00;98306.72;4123333;28;20331;-52
2022/10/23 08:57:21;;;;;;;0.90;0.90;;;;;;;14.45;100.00;98297.66;4130089;28;20552;-50
2022/10/23 08:59:31;;;;;;;0.80;0.80;;;;;;;14.19;100.00;98293.31;4121129;28;20206;-50
2022/10/23 09:01:33;;;;;;;1.38;1.13;;;;;;;14.26;100.00;98293.84;4118106;28;20209;-50
2022/10/23 09:03:35;;;;;;;1.00;0.90;;;;;;;14.14;100.00;98279.50;4119163;28;20215;-51
2022/10/23 09:05:46;;;;;;;1.35;1.20;;;;;;;14.29;100.00;98294.09;4119862;28;20230;-50
2022/10/23 09:08:06;;;;;;;0.70;0.70;;;;;;;14.37;100.00;98290.78;4126539;28;20237;-50
2022/10/23 09:10:13;;;;;;;1.23;1.13;;;;;;;14.43;100.00;98283.34;4137135;28;20205;-49
2022/10/23 09:12:21;;;;;;;1.20;1.13;;;;;;;14.27;100.00;98285.31;4136509;28;20305;-51
2022/10/23 09:14:46;;;;;;;1.33;1.23;;;;;;;14.33;100.00;98295.22;4140519;28;20227;-49
2022/10/23 09:17:09;;;;;;;0.90;0.90;;;;;;;14.41;100.00;98296.53;4123939;28;20250;-49
2022/10/23 09:19:17;;;;;;;0.73;0.73;;;;;;;14.46;100.00;98300.13;4122563;28;20206;-51
2022/10/23 09:21:19;;;;;;;2.85;1.10;;;;;;;14.55;100.00;98301.19;4138756;28;20268;-50
2022/10/23 09:23:22;;;;;;;1.20;1.15;;;;;;;14.55;100.00;98295.69;4121932;28;20923;-50
2022/10/23 09:25:26;;;;;;;1.23;1.13;;;;;;;14.63;100.00;98306.13;4115442;28;20731;-50
2022/10/23 09:27:28;;;;;;;1.27;1.13;;;;;;;14.67;100.00;98290.69;4128793;28;20213;-51
2022/10/23 09:29:34;;;;;;;1.10;1.00;;;;;;;14.63;100.00;98283.28;4118785;28;20203;-50
2022/10/23 09:31:50;;;;;;;1.17;0.70;;;;;;;14.65;100.00;98281.88;4106358;28;20264;-51
2022/10/23 09:33:57;;;;;;;0.77;0.77;;;;;;;14.67;100.00;98271.41;4141113;28;20223;-49
2022/10/23 09:36:12;;;;;;;0.80;0.80;;;;;;;14.47;100.00;98284.41;4122122;28;20236;-52
2022/10/23 09:38:46;;;;;;;0.80;0.80;;;;;;;14.52;100.00;98274.22;4122632;28;20205;-49
2022/10/23 09:40:49;;;;;;;2.53;1.23;;;;;;;14.48;100.00;98270.38;4138804;28;20263;-50
2022/10/23 09:43:02;;;;;;;1.70;1.60;;;;;;;14.39;100.00;98261.06;4109717;28;20202;-49